Time;durP1;ratioP1;P1;durP2;ratioP2;P2;SDS_P1;SDS_P2;PMS_P1;PMS_P2;Temp;Humidity;BMP_temperature;BMP_pressure;BME280_temperature;BME280_humidity;BME280_pressure;Samples;Min_cycle;Max_cycle;Signal;HPM_P1;HPM_P2
2022/09/28 00:01:20;;;;;;;2.33;1.30;;;19.90;68.30;;;;;;5167630;23;20020;-44
2022/09/28 00:03:43;;;;;;;2.45;1.50;;;19.90;68.30;;;;;;5168150;22;20404;-45
2022/09/28 00:06:09;;;;;;;1.88;1.10;;;19.90;68.30;;;;;;5166570;23;20095;-45
2022/09/28 00:08:32;;;;;;;1.30;1.20;;;19.90;68.30;;;;;;5167692;23;20012;-44
2022/09/28 00:10:56;;;;;;;1.70;1.30;;;19.90;68.30;;;;;;5168577;23;20103;-46
2022/09/28 00:13:18;;;;;;;1.30;0.95;;;19.90;68.30;;;;;;5169052;23;20016;-44
2022/09/28 00:15:41;;;;;;;1.30;1.20;;;19.90;68.30;;;;;;5168982;23;20170;-44
2022/09/28 00:18:04;;;;;;;1.35;1.00;;;19.90;68.30;;;;;;5169467;23;20046;-43
2022/09/28 00:20:26;;;;;;;1.13;1.02;;;20.00;68.30;;;;;;5168278;23;20034;-44
2022/09/28 00:22:49;;;;;;;1.35;1.10;;;20.00;68.20;;;;;;5168148;23;20353;-44
2022/09/28 00:25:11;;;;;;;1.17;1.00;;;20.00;68.20;;;;;;5168911;23;20063;-45
2022/09/28 00:27:34;;;;;;;1.63;1.10;;;20.00;68.20;;;;;;5168639;23;20512;-44
2022/09/28 00:29:57;;;;;;;0.77;0.77;;;20.00;68.20;;;;;;5168772;23;20210;-45
2022/09/28 00:32:23;;;;;;;0.82;0.80;;;20.00;68.20;;;;;;5167282;23;20419;-44
2022/09/28 00:34:47;;;;;;;1.17;0.80;;;20.00;68.10;;;;;;5172121;23;20019;-45
2022/09/28 00:37:11;;;;;;;0.90;0.90;;;20.00;68.10;;;;;;5174649;23;20035;-44
2022/09/28 00:39:34;;;;;;;1.25;0.90;;;20.00;68.10;;;;;;5174523;23;20020;-43
2022/09/28 00:41:58;;;;;;;1.25;0.88;;;20.00;68.10;;;;;;5173541;23;20012;-46
2022/09/28 00:44:29;;;;;;;2.00;0.85;;;20.00;68.00;;;;;;5173411;23;20104;-44
2022/09/28 00:47:03;;;;;;;1.13;1.00;;;20.00;68.00;;;;;;5168682;23;20027;-47
2022/09/28 00:49:57;;;;;;;0.90;0.90;;;20.10;68.10;;;;;;5166115;23;20320;-45
2022/09/28 00:52:26;;;;;;;0.95;0.90;;;20.10;68.00;;;;;;5160097;22;20491;-44
2022/09/28 00:54:50;;;;;;;0.75;0.73;;;20.10;68.00;;;;;;5167813;23;20022;-46
2022/09/28 00:57:13;;;;;;;;;;;20.10;68.00;;;;;;5168928;23;20012;-44
2022/09/28 00:59:35;;;;;;;0.80;0.80;;;20.10;68.10;;;;;;5169712;23;20275;-44
2022/09/28 01:01:58;;;;;;;1.00;0.90;;;20.10;68.10;;;;;;5168053;23;20016;-48
2022/09/28 01:04:23;;;;;;;0.85;0.80;;;20.10;68.00;;;;;;5168033;22;20103;-49
2022/09/28 01:06:46;;;;;;;2.28;0.90;;;20.20;68.20;;;;;;5168081;23;20016;-48
2022/09/28 01:09:12;;;;;;;1.23;0.98;;;20.20;68.10;;;;;;5159356;23;20437;-44
2022/09/28 01:11:37;;;;;;;0.85;0.80;;;20.20;68.10;;;;;;5168072;23;20476;-50
2022/09/28 01:14:01;;;;;;;0.85;0.82;;;20.20;68.00;;;;;;5166223;23;20024;-46
2022/09/28 01:16:50;;;;;;;0.98;0.82;;;20.20;68.00;;;;;;5164235;23;20081;-48
2022/09/28 01:19:20;;;;;;;1.15;0.93;;;20.20;67.90;;;;;;5166141;23;20050;-47
2022/09/28 01:22:13;;;;;;;1.00;0.90;;;20.20;67.90;;;;;;5166449;23;20022;-45
2022/09/28 01:24:55;;;;;;;0.70;0.70;;;20.20;68.00;;;;;;5166379;23;20050;-45
2022/09/28 01:27:43;;;;;;;1.20;1.10;;;20.30;68.00;;;;;;5164638;23;20035;-47
2022/09/28 01:30:15;;;;;;;1.10;1.00;;;20.30;68.30;;;;;;5165157;23;20020;-47
2022/09/28 01:33:02;;;;;;;0.77;0.77;;;20.30;68.00;;;;;;5165373;23;20035;-44
2022/09/28 01:35:38;;;;;;;2.25;1.00;;;20.30;67.90;;;;;;5167905;23;20066;-47
2022/09/28 01:38:16;;;;;;;1.00;0.90;;;20.30;68.50;;;;;;5160874;23;20048;-47
2022/09/28 01:40:39;;;;;;;1.15;1.00;;;20.30;67.90;;;;;;5169317;23;20460;-45
2022/09/28 01:43:27;;;;;;;1.30;1.10;;;20.40;67.90;;;;;;5167587;23;20095;-48
2022/09/28 01:46:07;;;;;;;1.40;1.10;;;20.40;67.70;;;;;;5137017;23;20342;-43
2022/09/28 01:48:39;;;;;;;2.10;1.00;;;20.40;67.70;;;;;;5165840;23;20016;-49
2022/09/28 01:51:07;;;;;;;1.58;1.13;;;20.40;67.60;;;;;;5165760;23;20016;-44
2022/09/28 01:53:39;;;;;;;2.08;1.30;;;20.40;67.40;;;;;;5164902;23;20121;-44
2022/09/28 01:56:11;;;;;;;1.48;1.25;;;20.40;67.30;;;;;;5166976;23;20039;-44
2022/09/28 01:59:00;;;;;;;2.33;1.60;;;20.50;67.30;;;;;;5158251;23;20067;-44
2022/09/28 02:01:29;;;;;;;2.70;1.73;;;20.50;67.30;;;;;;5156528;23;20535;-44
2022/09/28 02:03:54;;;;;;;4.10;1.85;;;20.50;67.50;;;;;;5166685;22;20024;-47
2022/09/28 02:06:30;;;;;;;3.20;1.70;;;20.50;67.60;;;;;;5164013;23;20044;-44
2022/09/28 02:08:58;;;;;;;2.80;1.85;;;20.60;67.80;;;;;;5166092;23;20357;-44
2022/09/28 02:11:22;;;;;;;2.92;1.70;;;20.60;68.00;;;;;;5164014;23;20102;-49
2022/09/28 02:13:49;;;;;;;4.78;2.00;;;20.60;67.90;;;;;;5165880;23;20344;-44
2022/09/28 02:16:42;;;;;;;2.30;1.35;;;20.60;67.80;;;;;;5136343;23;20019;-47
2022/09/28 02:19:08;;;;;;;3.72;1.55;;;20.60;67.70;;;;;;5158275;23;20016;-46
2022/09/28 02:21:49;;;;;;;3.10;1.75;;;20.60;67.70;;;;;;5165367;23;20020;-45
2022/09/28 02:24:20;;;;;;;1.60;1.33;;;20.70;67.50;;;;;;5133781;23;20106;-45
2022/09/28 02:26:46;;;;;;;2.97;1.30;;;20.70;67.40;;;;;;5166091;23;20015;-46
2022/09/28 02:29:08;;;;;;;3.15;1.60;;;20.70;67.40;;;;;;5166176;23;20048;-47
2022/09/28 02:31:31;;;;;;;2.30;1.33;;;20.70;67.40;;;;;;5164986;23;20008;-47
2022/09/28 02:33:56;;;;;;;2.43;1.40;;;20.70;67.40;;;;;;5165177;23;20352;-45
2022/09/28 02:36:20;;;;;;;3.00;1.73;;;20.70;67.40;;;;;;5164596;23;20375;-48
2022/09/28 02:38:42;;;;;;;2.20;1.45;;;20.70;67.40;;;;;;5164559;23;20020;-49
2022/09/28 02:41:33;;;;;;;3.35;1.73;;;20.70;67.30;;;;;;5165123;23;20416;-45
2022/09/28 02:44:25;;;;;;;2.22;1.60;;;20.80;67.40;;;;;;5166496;23;20028;-44
2022/09/28 02:47:11;;;;;;;2.47;1.75;;;20.80;67.40;;;;;;5159959;23;20349;-47
2022/09/28 02:50:01;;;;;;;2.95;1.80;;;20.80;67.30;;;;;;5117145;23;20023;-49
2022/09/28 02:53:10;;;;;;;2.33;1.63;;;20.80;67.30;;;;;;5167695;23;20016;-49
2022/09/28 02:55:45;;;;;;;2.90;1.70;;;20.80;67.30;;;;;;5160161;23;20443;-47
2022/09/28 02:58:19;;;;;;;;;;;20.80;67.20;;;;;;5167781;23;20015;-46
2022/09/28 03:00:52;;;;;;;2.17;1.75;;;20.80;67.20;;;;;;5168524;23;19973;-43
2022/09/28 03:03:41;;;;;;;3.70;1.60;;;20.90;67.20;;;;;;5168066;22;20012;-45
2022/09/28 03:06:31;;;;;;;2.63;1.60;;;20.80;67.10;;;;;;5166317;23;20480;-48
2022/09/28 03:09:19;;;;;;;2.10;1.42;;;20.90;67.10;;;;;;5128602;23;20026;-49
2022/09/28 03:11:48;;;;;;;4.57;1.52;;;20.90;67.10;;;;;;5164489;23;20448;-43
2022/09/28 03:14:11;;;;;;;2.28;1.50;;;20.90;67.20;;;;;;5160319;23;20011;-50
2022/09/28 03:16:34;;;;;;;2.17;1.40;;;20.90;67.20;;;;;;5159496;23;20012;-46
2022/09/28 03:18:57;;;;;;;2.30;1.45;;;20.90;67.10;;;;;;5160236;23;20019;-46
2022/09/28 03:21:19;;;;;;;4.15;2.15;;;20.90;67.20;;;;;;5159921;23;20023;-43
2022/09/28 03:23:42;;;;;;;3.58;1.83;;;20.90;67.20;;;;;;5159285;23;20012;-43
2022/09/28 03:26:07;;;;;;;3.90;1.90;;;20.90;67.20;;;;;;5160806;23;20051;-44
2022/09/28 03:28:30;;;;;;;3.80;2.10;;;20.90;67.30;;;;;;5150273;23;20016;-44
2022/09/28 03:30:53;;;;;;;4.60;2.08;;;21.00;67.40;;;;;;5150126;23;20099;-43
2022/09/28 03:33:16;;;;;;;4.47;1.90;;;21.00;67.30;;;;;;5127789;23;20017;-43
2022/09/28 03:35:38;;;;;;;3.40;1.90;;;21.00;67.20;;;;;;5160132;23;20028;-44
2022/09/28 03:38:01;;;;;;;3.25;1.88;;;21.00;67.80;;;;;;5159302;23;20479;-43
2022/09/28 03:40:24;;;;;;;4.63;2.30;;;21.10;67.10;;;;;;5159721;23;20023;-45
2022/09/28 03:42:46;;;;;;;2.63;1.75;;;21.10;67.00;;;;;;5165404;23;20070;-45
2022/09/28 03:45:09;;;;;;;3.42;1.50;;;21.10;66.90;;;;;;5166049;23;20612;-44
2022/09/28 03:47:32;;;;;;;4.55;1.77;;;21.20;66.90;;;;;;5135313;23;20013;-50
2022/09/28 03:49:54;;;;;;;3.65;1.80;;;21.20;66.80;;;;;;5165635;23;20145;-44
2022/09/28 03:52:17;;;;;;;2.83;1.52;;;21.30;66.80;;;;;;5166579;23;20067;-44
2022/09/28 03:54:40;;;;;;;3.30;1.63;;;21.30;66.70;;;;;;5165725;23;20086;-44
2022/09/28 03:57:03;;;;;;;3.67;1.70;;;21.30;66.60;;;;;;5165982;23;20008;-45
2022/09/28 03:59:25;;;;;;;3.35;1.77;;;21.30;66.50;;;;;;5165847;23;20039;-43
2022/09/28 04:01:51;;;;;;;2.65;1.50;;;21.40;66.60;;;;;;5166573;23;20008;-43
2022/09/28 04:04:14;;;;;;;2.25;1.63;;;21.30;66.40;;;;;;5165997;22;20019;-44
2022/09/28 04:06:37;;;;;;;1.85;1.50;;;21.40;66.60;;;;;;5166268;23;20020;-42
2022/09/28 04:08:59;;;;;;;3.40;1.50;;;21.40;66.60;;;;;;5165999;23;20012;-42
2022/09/28 04:11:23;;;;;;;2.25;1.15;;;21.40;66.40;;;;;;5167573;23;20023;-45
2022/09/28 04:13:51;;;;;;;1.98;1.17;;;21.40;66.40;;;;;;5138425;23;20024;-42
2022/09/28 04:16:14;;;;;;;2.38;1.55;;;21.40;66.40;;;;;;5169086;23;20460;-42
2022/09/28 04:18:38;;;;;;;3.83;1.48;;;21.40;66.40;;;;;;5161125;23;20019;-43
2022/09/28 04:21:05;;;;;;;3.08;1.50;;;21.40;66.40;;;;;;5161112;23;20019;-43
2022/09/28 04:23:28;;;;;;;2.80;1.60;;;21.40;66.20;;;;;;5161498;23;20463;-45
2022/09/28 04:25:53;;;;;;;2.53;1.50;;;21.40;66.30;;;;;;5168462;23;20024;-47
2022/09/28 04:30:56;;;;;;;2.15;1.10;;;21.40;66.20;;;;;;5167418;23;20012;-45
2022/09/28 04:33:19;;;;;;;2.00;1.30;;;21.40;66.20;;;;;;5168968;23;20515;-44
2022/09/28 04:35:42;;;;;;;1.65;1.35;;;21.40;66.20;;;;;;5139436;23;20020;-45
2022/09/28 04:38:04;;;;;;;1.95;1.20;;;21.40;66.20;;;;;;5168536;23;20016;-45
2022/09/28 04:40:27;;;;;;;2.42;1.27;;;21.40;66.20;;;;;;5165855;23;20475;-44
2022/09/28 04:42:56;;;;;;;3.63;1.55;;;21.40;66.30;;;;;;5160080;23;20044;-47
2022/09/28 04:45:19;;;;;;;3.05;1.42;;;21.40;66.50;;;;;;5158010;23;20074;-46
2022/09/28 04:47:42;;;;;;;2.78;1.98;;;21.40;66.50;;;;;;5160086;23;20016;-47
2022/09/28 04:50:04;;;;;;;2.80;1.63;;;21.40;66.50;;;;;;5168674;23;20012;-45
2022/09/28 04:52:27;;;;;;;3.55;1.75;;;21.40;66.50;;;;;;5168961;23;20031;-44
2022/09/28 04:54:50;;;;;;;3.35;1.50;;;21.40;66.50;;;;;;5167029;23;20075;-48
2022/09/28 04:57:12;;;;;;;3.35;2.10;;;21.40;66.50;;;;;;5169812;23;20031;-46
2022/09/28 04:59:36;;;;;;;3.97;1.70;;;21.40;66.50;;;;;;5161267;23;20027;-48
2022/09/28 05:01:59;;;;;;;2.45;1.33;;;21.50;66.50;;;;;;5154448;23;20353;-43
2022/09/28 05:04:21;;;;;;;1.80;1.33;;;21.50;66.50;;;;;;5157641;22;20008;-45
2022/09/28 05:06:44;;;;;;;4.35;1.63;;;21.50;66.50;;;;;;5157039;23;20255;-46
2022/09/28 05:09:08;;;;;;;3.13;1.65;;;21.50;66.50;;;;;;5160072;23;20012;-47
2022/09/28 05:11:31;;;;;;;2.90;1.25;;;21.50;66.50;;;;;;5160296;23;20008;-44
2022/09/28 05:13:53;;;;;;;3.00;1.40;;;21.50;66.40;;;;;;5160508;23;20015;-44
2022/09/28 05:16:16;;;;;;;2.72;1.15;;;21.50;66.40;;;;;;5153215;23;20016;-46
2022/09/28 05:18:39;;;;;;;3.35;1.30;;;21.50;66.40;;;;;;5152502;23;20016;-49
2022/09/28 05:21:02;;;;;;;2.15;1.33;;;21.50;66.40;;;;;;5159938;23;20490;-44
2022/09/28 05:23:25;;;;;;;2.80;1.20;;;21.50;66.40;;;;;;5160581;23;20012;-45
2022/09/28 05:25:47;;;;;;;1.88;1.13;;;21.50;66.30;;;;;;5163217;23;20115;-44
2022/09/28 05:28:10;;;;;;;3.03;1.42;;;21.50;66.30;;;;;;5131427;23;20024;-44
2022/09/28 05:30:34;;;;;;;4.40;1.40;;;21.50;66.30;;;;;;5163239;23;20023;-44
2022/09/28 05:32:57;;;;;;;2.88;1.45;;;21.50;66.20;;;;;;5154980;23;20044;-43
2022/09/28 05:35:19;;;;;;;2.55;1.20;;;21.50;66.20;;;;;;5162558;23;20012;-44
2022/09/28 05:37:42;;;;;;;1.95;1.00;;;21.50;66.20;;;;;;5163233;23;20020;-46
2022/09/28 05:40:06;;;;;;;3.58;1.40;;;21.60;66.20;;;;;;5163673;23;20019;-44
2022/09/28 05:42:29;;;;;;;2.60;1.25;;;21.60;66.20;;;;;;5154739;23;20471;-44
2022/09/28 05:44:52;;;;;;;1.58;0.95;;;21.60;66.20;;;;;;5160775;23;20020;-43
2022/09/28 05:47:15;;;;;;;3.53;1.33;;;21.60;66.10;;;;;;5157851;23;20047;-44
2022/09/28 05:49:37;;;;;;;3.20;1.42;;;21.70;66.10;;;;;;5159745;23;20093;-46
2022/09/28 05:52:00;;;;;;;2.83;1.30;;;21.80;66.10;;;;;;5157200;23;20334;-46
2022/09/28 05:54:22;;;;;;;1.60;1.05;;;21.80;66.00;;;;;;5158970;23;20034;-44
2022/09/28 05:56:45;;;;;;;3.47;1.25;;;21.80;65.90;;;;;;5158838;23;20020;-47
2022/09/28 05:59:08;;;;;;;3.60;1.48;;;21.80;66.00;;;;;;5159527;23;20012;-44
2022/09/28 06:01:30;;;;;;;1.92;1.10;;;21.80;65.90;;;;;;5157706;23;20024;-48
2022/09/28 06:03:53;;;;;;;1.70;0.82;;;21.80;65.80;;;;;;5152823;22;20169;-51
2022/09/28 06:06:16;;;;;;;3.42;1.08;;;21.80;65.80;;;;;;5159503;23;20020;-46
2022/09/28 06:08:41;;;;;;;3.15;1.35;;;21.80;65.80;;;;;;5159592;23;20012;-44
2022/09/28 06:11:04;;;;;;;4.38;1.40;;;21.80;66.00;;;;;;5159485;23;20187;-49
2022/09/28 06:13:27;;;;;;;3.72;1.10;;;21.80;66.10;;;;;;5159128;23;20023;-45
2022/09/28 06:15:50;;;;;;;3.35;1.45;;;21.80;66.10;;;;;;5159391;23;20567;-45
2022/09/28 06:18:14;;;;;;;3.35;1.25;;;21.80;66.20;;;;;;5159063;23;20016;-46
2022/09/28 06:20:41;;;;;;;1.92;1.10;;;21.70;66.20;;;;;;5159092;23;20384;-47
2022/09/28 06:23:07;;;;;;;2.80;1.40;;;21.70;66.20;;;;;;5159513;23;20016;-47
2022/09/28 06:25:30;;;;;;;1.77;0.98;;;21.70;66.30;;;;;;5151808;23;20024;-48
2022/09/28 06:28:13;;;;;;;3.38;1.15;;;21.70;66.30;;;;;;5159099;23;20016;-48
2022/09/28 06:30:37;;;;;;;2.10;0.93;;;21.70;66.30;;;;;;5158609;23;20091;-44
2022/09/28 06:33:01;;;;;;;1.38;0.85;;;21.70;66.40;;;;;;5160049;23;20160;-45
2022/09/28 06:35:26;;;;;;;3.58;1.17;;;21.70;66.50;;;;;;5159629;23;20039;-42
2022/09/28 06:37:49;;;;;;;2.03;0.93;;;21.60;66.50;;;;;;5158457;23;20007;-50
2022/09/28 06:40:11;;;;;;;2.22;1.13;;;21.60;66.50;;;;;;5158668;23;20058;-44
2022/09/28 06:42:34;;;;;;;3.63;1.30;;;21.60;66.50;;;;;;5157580;23;20012;-42
2022/09/28 06:44:58;;;;;;;2.88;1.00;;;21.60;66.50;;;;;;5158400;23;20416;-46
2022/09/28 06:47:20;;;;;;;2.03;0.95;;;21.60;66.50;;;;;;5157386;23;20016;-43
2022/09/28 06:49:44;;;;;;;3.50;1.05;;;21.60;66.60;;;;;;5156512;23;20727;-44
2022/09/28 06:52:07;;;;;;;2.97;1.10;;;21.60;66.70;;;;;;5150207;23;20277;-43
2022/09/28 06:54:30;;;;;;;2.50;1.10;;;21.50;66.60;;;;;;5158778;23;20028;-45
2022/09/28 06:56:55;;;;;;;3.08;0.90;;;21.50;66.70;;;;;;5157434;23;20013;-47
2022/09/28 06:59:18;;;;;;;2.42;0.90;;;21.50;66.70;;;;;;5158873;23;20016;-50
2022/09/28 07:01:40;;;;;;;1.60;0.90;;;21.50;66.80;;;;;;5160513;23;20102;-48
2022/09/28 07:04:03;;;;;;;1.38;0.70;;;21.50;67.40;;;;;;5167596;22;20028;-46
2022/09/28 07:06:25;;;;;;;2.15;0.88;;;21.50;66.80;;;;;;5159438;23;20016;-44
2022/09/28 07:08:48;;;;;;;1.35;0.68;;;21.50;66.80;;;;;;5157824;23;20332;-44
2022/09/28 07:11:11;;;;;;;2.97;1.15;;;21.50;66.90;;;;;;5156673;23;20247;-47
2022/09/28 07:13:34;;;;;;;1.67;1.00;;;21.50;66.90;;;;;;5149532;23;20456;-46
2022/09/28 07:16:00;;;;;;;2.92;1.13;;;21.50;66.90;;;;;;5148178;23;20012;-44
2022/09/28 07:18:23;;;;;;;1.42;0.90;;;21.40;66.90;;;;;;5160319;23;20535;-44
2022/09/28 07:20:46;;;;;;;1.90;1.10;;;21.40;66.90;;;;;;5153093;23;20453;-46
2022/09/28 07:23:09;;;;;;;2.25;1.05;;;21.40;66.80;;;;;;5160470;23;20087;-46
2022/09/28 07:25:34;;;;;;;1.73;0.70;;;21.40;66.80;;;;;;5161399;23;20023;-45
2022/09/28 07:28:01;;;;;;;1.58;0.68;;;21.40;66.80;;;;;;5161222;23;20494;-46
2022/09/28 07:30:25;;;;;;;3.13;0.80;;;21.40;66.90;;;;;;5159926;23;20468;-47
2022/09/28 07:32:48;;;;;;;2.10;1.10;;;21.40;66.90;;;;;;5160355;23;20688;-45
2022/09/28 07:35:10;;;;;;;1.58;0.73;;;21.40;66.80;;;;;;5158324;23;20597;-46
2022/09/28 07:37:34;;;;;;;2.58;0.98;;;21.40;67.40;;;;;;5161180;23;20046;-44
2022/09/28 07:42:37;;;;;;;1.90;0.85;;;21.40;66.80;;;;;;5167255;23;20058;-44
2022/09/28 07:45:00;;;;;;;3.53;0.88;;;21.40;66.80;;;;;;5167497;23;20031;-46
2022/09/28 07:47:25;;;;;;;1.27;0.77;;;21.40;66.80;;;;;;5167618;23;20019;-47
2022/09/28 07:49:50;;;;;;;2.50;1.30;;;21.40;66.80;;;;;;5161096;23;20047;-50
2022/09/28 07:52:12;;;;;;;1.48;0.82;;;21.40;66.80;;;;;;5166505;23;20015;-46
2022/09/28 07:54:35;;;;;;;2.47;0.90;;;21.40;66.80;;;;;;5158224;23;20318;-50
2022/09/28 07:56:57;;;;;;;0.60;0.60;;;21.40;66.80;;;;;;5165885;23;20015;-43
2022/09/28 07:59:20;;;;;;;1.38;0.73;;;21.30;66.90;;;;;;5165650;23;20589;-46
2022/09/28 08:01:43;;;;;;;2.53;1.00;;;21.40;66.90;;;;;;5169253;23;20455;-46
2022/09/28 08:04:05;;;;;;;2.63;0.88;;;21.40;67.00;;;;;;5167629;22;20024;-44
2022/09/28 08:06:30;;;;;;;1.55;0.70;;;21.40;67.00;;;;;;5165861;23;20095;-45
2022/09/28 08:08:55;;;;;;;1.42;1.00;;;21.40;67.00;;;;;;5165818;23;20070;-44
2022/09/28 08:11:18;;;;;;;2.58;1.17;;;21.40;67.10;;;;;;5156005;23;20074;-48
2022/09/28 08:13:41;;;;;;;3.63;0.93;;;21.40;67.10;;;;;;5165477;23;20020;-45
2022/09/28 08:16:06;;;;;;;1.35;0.98;;;21.30;67.00;;;;;;5169137;23;20155;-44
2022/09/28 08:18:29;;;;;;;2.70;0.90;;;21.30;67.00;;;;;;5164806;23;20023;-47
2022/09/28 08:23:33;;;;;;;1.73;1.00;;;21.30;67.20;;;;;;5162509;23;20008;-48
2022/09/28 08:25:56;;;;;;;1.55;0.90;;;21.30;67.10;;;;;;5163491;23;20288;-48
2022/09/28 08:28:21;;;;;;;1.73;0.98;;;21.30;67.10;;;;;;5131981;23;20527;-48
2022/09/28 08:30:44;;;;;;;3.97;0.90;;;21.30;67.10;;;;;;5157344;23;20044;-46
2022/09/28 08:33:07;;;;;;;1.92;1.00;;;21.40;67.20;;;;;;5167461;23;20012;-46
2022/09/28 08:35:30;;;;;;;1.45;0.80;;;21.30;67.10;;;;;;5165962;23;20024;-47
2022/09/28 08:37:53;;;;;;;2.15;1.17;;;21.30;67.30;;;;;;5166450;23;20012;-46
2022/09/28 08:40:23;;;;;;;2.03;0.82;;;21.30;67.20;;;;;;5166372;23;20020;-47
2022/09/28 08:42:47;;;;;;;1.88;1.17;;;21.30;67.40;;;;;;5156827;23;20023;-45
2022/09/28 08:45:18;;;;;;;2.80;1.20;;;21.30;67.40;;;;;;5157692;23;20032;-46
2022/09/28 08:50:54;;;;;;;1.75;1.00;;;21.30;67.40;;;;;;5166641;23;20020;-45
2022/09/28 08:53:50;;;;;;;0.98;0.60;;;21.30;67.40;;;;;;5167570;23;20077;-46
2022/09/28 08:56:41;;;;;;;2.78;1.23;;;21.30;67.40;;;;;;5167724;23;20012;-45
2022/09/28 08:59:10;;;;;;;1.25;0.90;;;21.30;67.40;;;;;;5158531;23;20016;-46
2022/09/28 09:01:42;;;;;;;3.30;1.15;;;21.30;67.40;;;;;;5159113;23;20102;-44
2022/09/28 09:04:06;;;;;;;2.22;0.90;;;21.30;67.40;;;;;;5166121;22;20503;-44
2022/09/28 09:06:33;;;;;;;2.78;1.15;;;21.30;67.40;;;;;;5164077;23;20389;-46
2022/09/28 09:09:32;;;;;;;1.83;1.23;;;21.30;67.50;;;;;;5158832;23;20026;-46
2022/09/28 09:12:15;;;;;;;3.60;1.00;;;21.20;67.40;;;;;;5170564;23;20345;-48
2022/09/28 09:15:02;;;;;;;11.80;1.65;;;21.30;67.70;;;;;;5157418;23;20016;-45
2022/09/28 09:18:04;;;;;;;8.05;1.83;;;21.30;68.10;;;;;;5164986;23;20388;-50
2022/09/28 09:20:42;;;;;;;4.38;1.20;;;21.30;67.90;;;;;;5157017;23;20069;-48
2022/09/28 09:23:33;;;;;;;6.03;1.25;;;21.30;68.10;;;;;;5165280;23;20128;-50
2022/09/28 09:26:04;;;;;;;5.38;1.40;;;21.30;68.10;;;;;;5156650;23;20035;-48
2022/09/28 09:29:03;;;;;;;3.55;1.35;;;21.30;68.20;;;;;;5163477;23;20350;-50
2022/09/28 09:31:41;;;;;;;1.90;1.20;;;21.30;68.40;;;;;;5164664;23;20012;-47
2022/09/28 09:34:11;;;;;;;2.33;1.13;;;21.40;68.40;;;;;;5165860;23;20051;-46
2022/09/28 09:36:52;;;;;;;1.33;0.93;;;21.40;68.40;;;;;;5163502;23;20290;-47
2022/09/28 09:39:35;;;;;;;5.13;1.30;;;21.40;68.50;;;;;;5163465;23;20016;-51
2022/09/28 09:42:10;;;;;;;3.45;1.00;;;21.40;68.50;;;;;;5162594;23;20075;-45
2022/09/28 09:45:00;;;;;;;2.42;1.10;;;21.40;68.50;;;;;;5163516;23;20325;-46
2022/09/28 09:47:31;;;;;;;2.38;1.00;;;21.40;68.70;;;;;;5163455;23;20016;-50
2022/09/28 09:50:09;;;;;;;5.90;0.77;;;21.40;68.70;;;;;;5162672;23;20238;-49
2022/09/28 09:52:56;;;;;;;2.58;1.23;;;21.40;68.70;;;;;;5153918;23;20019;-52
2022/09/28 09:55:39;;;;;;;3.47;1.23;;;21.40;68.80;;;;;;5154887;23;20019;-48
2022/09/28 09:58:17;;;;;;;2.72;1.35;;;21.40;68.90;;;;;;5161417;23;20011;-49
2022/09/28 10:00:46;;;;;;;3.10;1.10;;;21.40;68.90;;;;;;5162161;23;20020;-46
2022/09/28 10:03:19;;;;;;;3.45;1.33;;;21.40;68.90;;;;;;5153677;22;20472;-44
2022/09/28 10:05:46;;;;;;;4.53;0.77;;;21.40;68.80;;;;;;5160187;23;20024;-50
2022/09/28 10:08:08;;;;;;;3.65;1.48;;;21.40;69.00;;;;;;5161806;23;20039;-45
2022/09/28 10:10:35;;;;;;;3.40;1.25;;;21.40;69.00;;;;;;5162238;23;20501;-46
2022/09/28 10:12:58;;;;;;;2.72;1.23;;;21.40;68.90;;;;;;5162455;23;20012;-53
2022/09/28 10:15:26;;;;;;;3.30;1.48;;;21.40;69.00;;;;;;5162858;23;20020;-46
2022/09/28 10:17:48;;;;;;;2.80;0.80;;;21.40;68.90;;;;;;5155422;23;20070;-44
2022/09/28 10:20:16;;;;;;;3.67;1.02;;;21.40;69.00;;;;;;5162133;23;20024;-46
2022/09/28 10:22:39;;;;;;;7.35;1.05;;;21.40;68.90;;;;;;5162626;23;20023;-46
2022/09/28 10:25:04;;;;;;;1.90;0.88;;;21.40;68.80;;;;;;5162407;23;20020;-45
2022/09/28 10:27:35;;;;;;;1.55;0.85;;;21.40;68.70;;;;;;5162686;23;20019;-46
2022/09/28 10:30:02;;;;;;;10.38;1.63;;;21.40;68.70;;;;;;5162284;23;20042;-47
2022/09/28 10:32:35;;;;;;;3.30;0.88;;;21.40;68.80;;;;;;5155915;23;20023;-45
2022/09/28 10:35:17;;;;;;;5.22;1.02;;;21.40;68.90;;;;;;5160476;23;20038;-46
2022/09/28 10:38:16;;;;;;;3.70;0.98;;;21.40;68.80;;;;;;5152170;23;20097;-45
2022/09/28 10:40:56;;;;;;;1.77;1.05;;;21.40;68.70;;;;;;5159124;23;20051;-50
2022/09/28 10:43:25;;;;;;;1.20;0.80;;;21.40;68.60;;;;;;5161509;23;20395;-45
2022/09/28 10:45:48;;;;;;;2.25;0.88;;;21.40;68.70;;;;;;5163440;23;20107;-47
2022/09/28 10:48:21;;;;;;;1.23;0.80;;;21.40;68.60;;;;;;5165156;23;20023;-48
2022/09/28 10:51:03;;;;;;;1.47;0.70;;;21.40;68.80;;;;;;5163473;23;20356;-43
2022/09/28 10:53:26;;;;;;;2.08;0.80;;;21.30;68.70;;;;;;5164565;23;20245;-52
2022/09/28 10:56:01;;;;;;;7.95;1.02;;;21.40;68.70;;;;;;5158055;23;20019;-50
2022/09/28 10:58:36;;;;;;;3.25;0.80;;;21.40;68.20;;;;;;5166323;23;20016;-49
2022/09/28 11:01:15;;;;;;;1.00;0.70;;;21.40;67.50;;;;;;5156338;23;20070;-48
2022/09/28 11:03:55;;;;;;;1.95;1.00;;;21.30;67.00;;;;;;5167145;22;20538;-49
2022/09/28 11:06:28;;;;;;;2.42;0.90;;;21.40;66.90;;;;;;5165781;23;20024;-53
2022/09/28 11:08:50;;;;;;;1.60;0.80;;;21.30;66.70;;;;;;5168520;23;20055;-51
2022/09/28 11:11:20;;;;;;;1.70;1.00;;;21.30;66.50;;;;;;5165311;23;20023;-46
2022/09/28 11:13:49;;;;;;;4.40;1.23;;;21.30;66.40;;;;;;5159828;23;20023;-45
2022/09/28 11:16:25;;;;;;;5.38;1.17;;;21.30;66.80;;;;;;5162452;23;20031;-44
2022/09/28 11:18:49;;;;;;;7.00;1.15;;;21.30;67.30;;;;;;5154930;23;20066;-45
2022/09/28 11:21:18;;;;;;;2.05;0.98;;;21.30;67.70;;;;;;5154693;23;20019;-46
2022/09/28 11:23:43;;;;;;;4.28;0.90;;;21.30;67.90;;;;;;5165598;23;20024;-51
2022/09/28 11:26:08;;;;;;;7.55;0.95;;;21.30;68.10;;;;;;5165363;23;20028;-51
2022/09/28 11:28:35;;;;;;;2.50;0.80;;;21.30;68.10;;;;;;5165380;23;20016;-46
2022/09/28 11:30:58;;;;;;;3.60;1.42;;;21.30;68.10;;;;;;5164377;23;20042;-46
2022/09/28 11:33:40;;;;;;;2.92;0.80;;;21.30;68.10;;;;;;5164564;23;20532;-46
2022/09/28 11:36:17;;;;;;;3.85;0.88;;;21.40;68.10;;;;;;5163155;23;20016;-46
2022/09/28 11:38:48;;;;;;;4.60;1.00;;;21.40;68.80;;;;;;5155241;23;20027;-47
2022/09/28 11:41:33;;;;;;;1.23;0.70;;;21.30;68.40;;;;;;5163476;23;20063;-47
2022/09/28 11:44:11;;;;;;;1.67;0.60;;;21.40;68.10;;;;;;5162827;23;20522;-47
2022/09/28 11:47:04;;;;;;;1.08;0.52;;;21.30;68.10;;;;;;5162776;23;20016;-50
2022/09/28 11:49:35;;;;;;;0.50;0.40;;;21.40;68.10;;;;;;5163428;23;20321;-47
2022/09/28 11:52:13;;;;;;;1.02;0.75;;;21.40;68.10;;;;;;5152513;23;20012;-48
2022/09/28 11:54:54;;;;;;;1.00;0.47;;;21.40;68.20;;;;;;5163143;23;20403;-45
2022/09/28 11:57:21;;;;;;;3.00;0.45;;;21.40;68.10;;;;;;5163752;23;20023;-45
2022/09/28 12:00:01;;;;;;;13.68;2.42;;;21.40;68.00;;;;;;5163172;23;20049;-46
2022/09/28 12:02:40;;;;;;;3.50;0.90;;;21.40;68.10;;;;;;5163932;23;20016;-46
2022/09/28 12:05:08;;;;;;;10.63;1.50;;;21.40;68.00;;;;;;5165971;23;20075;-45
2022/09/28 12:07:53;;;;;;;5.82;1.17;;;21.40;67.80;;;;;;5165704;23;20020;-46
2022/09/28 12:10:41;;;;;;;3.85;1.00;;;21.40;67.60;;;;;;5157322;23;20360;-43
2022/09/28 12:13:13;;;;;;;2.50;1.02;;;21.40;67.70;;;;;;5164750;23;20042;-45
2022/09/28 12:15:42;;;;;;;7.60;1.17;;;21.40;67.70;;;;;;5166226;23;20520;-45
2022/09/28 12:18:23;;;;;;;6.03;1.00;;;21.30;67.70;;;;;;5166051;23;20016;-47
2022/09/28 12:20:51;;;;;;;4.38;0.43;;;21.30;67.80;;;;;;5155258;23;20016;-45
2022/09/28 12:23:16;;;;;;;1.30;0.77;;;21.30;67.80;;;;;;5163804;23;20023;-48
2022/09/28 12:25:58;;;;;;;4.20;0.63;;;21.30;67.80;;;;;;5166396;23;20028;-51
2022/09/28 12:28:58;;;;;;;1.67;0.40;;;21.30;67.70;;;;;;5156197;23;20016;-49
2022/09/28 12:31:34;;;;;;;2.17;0.30;;;21.30;67.80;;;;;;5065434;23;20017;-45
2022/09/28 12:33:57;;;;;;;1.58;0.57;;;21.30;67.70;;;;;;5157593;23;20012;-43
2022/09/28 12:36:29;;;;;;;1.13;0.50;;;21.30;67.60;;;;;;5166053;23;20023;-46
2022/09/28 12:39:11;;;;;;;1.35;0.50;;;21.30;67.40;;;;;;5136917;23;20020;-47
2022/09/28 12:41:55;;;;;;;0.80;0.60;;;21.30;67.40;;;;;;5157900;23;20095;-49
2022/09/28 12:44:17;;;;;;;1.42;0.80;;;21.30;67.50;;;;;;5135978;23;20452;-43
2022/09/28 12:47:04;;;;;;;1.98;0.57;;;21.30;67.60;;;;;;5157473;23;20012;-49
2022/09/28 12:49:36;;;;;;;0.73;0.43;;;21.30;67.50;;;;;;5158042;23;20420;-44
2022/09/28 12:52:09;;;;;;;0.95;0.50;;;21.30;67.50;;;;;;5165837;23;20016;-50
2022/09/28 12:54:49;;;;;;;0.40;0.30;;;21.30;67.40;;;;;;5165980;23;20387;-46
2022/09/28 12:57:30;;;;;;;0.60;0.40;;;21.30;67.50;;;;;;5156838;23;20019;-48
2022/09/28 13:00:14;;;;;;;1.75;0.50;;;21.20;67.40;;;;;;5155224;23;20043;-49
2022/09/28 13:02:37;;;;;;;;;;;21.20;67.40;;;;;;5157129;23;20062;-49
2022/09/28 13:05:14;;;;;;;0.38;0.38;;;21.20;67.50;;;;;;5156760;23;19922;-48
2022/09/28 13:07:58;;;;;;;1.70;0.65;;;21.20;67.50;;;;;;5165880;23;20467;-48
2022/09/28 13:10:32;;;;;;;3.75;0.70;;;21.20;67.50;;;;;;5134464;23;20096;-46